Latest Weather Observations for Wangaratta

IDV60801

Issued at 9:02 pm EDT Sunday 1 February 2015 (issued every 30 minutes, with the page automatically refreshed every 10 minutes)

About weather observations | Map of weather stations | Latest weather observations for VIC | Other Formats
Station Details ID: 082138 Name: WANGARATTA AERO Lat: -36.42 Lon: 146.31 Height: 152.6 m
Data from the previous 72 hours. | See also: Recent months at Wangaratta
Date/Time
EDT
Temp
°C
App
Temp
°C
Dew
Point
Rel
Hum
%
Delta-T
°C
Wind Press
QNH
hPa
Press
MSL
hPa
Rain
since 9 am
mm
Dir
 
Spd
km/h
Gust
km/h
Spd
kts
Gust
kts
01/09:00pm 21.4 18.7 9.0 45 6.6 SE 13 17 7 9 1010.0 1009.4 0.0
01/08:30pm 22.0 18.8 8.5 42 7.2 ESE 15 24 8 13 1009.5 1008.9 0.0
01/08:00pm 24.3 20.3 6.6 32 9.2 SE 17 22 9 12 1008.8 1008.2 0.0
01/07:30pm 25.7 23.3 6.8 30 10.0 SE 9 11 5 6 1008.2 1007.6 0.0
01/07:00pm 24.5 21.4 7.2 33 9.1 SSW 13 19 7 10 1007.9 1007.3 0.0
01/06:30pm 25.9 21.5 4.9 26 10.7 SSE 17 22 9 12 1007.5 1006.8 0.0
01/06:00pm 27.0 23.1 6.9 28 10.7 S 17 28 9 15 1007.1 1006.4 0.0
01/05:30pm 28.7 25.6 5.5 23 12.2 SSW 11 22 6 12 1007.1 1006.4 0.0
01/05:00pm 27.8 23.5 5.4 24 11.7 SW 17 24 9 13 1007.2 1006.5 0.0
01/04:30pm 28.1 25.3 5.0 23 12.0 NW 9 19 5 10 1007.4 1006.7 0.0
01/04:00pm 28.0 26.9 6.7 26 11.4 S 2 11 1 6 1007.6 1006.9 0.0
01/03:30pm 29.0 26.0 7.6 26 11.7 W 13 24 7 13 1008.0 1007.4 0.0
01/03:00pm 27.4 23.7 6.2 26 11.2 WNW 15 22 8 12 1008.1 1007.5 0.0
01/02:30pm 27.4 24.4 7.8 29 10.6 WSW 13 22 7 12 1008.4 1007.8 0.0
01/02:00pm 27.0 24.3 7.5 29 10.5 ENE 11 17 6 9 1008.7 1008.1 0.0
01/01:30pm 25.9 23.6 7.5 31 9.8 SSW 9 20 5 11 1009.1 1008.5 0.0
01/01:00pm 25.5 23.4 8.1 33 9.4 SE 9 17 5 9 1009.4 1008.8 0.0
01/12:30pm 24.6 22.1 8.1 35 8.8 SW 11 17 6 9 1009.7 1009.1 0.0
01/12:00pm 23.9 21.4 8.3 37 8.4 SW 11 17 6 9 1010.0 1009.4 0.0
01/11:30am 23.6 22.2 8.8 39 8.0 N 6 11 3 6 1010.2 1009.6 0.0
01/11:00am 22.7 20.6 8.4 40 7.6 SSE 9 15 5 8 1010.4 1009.8 0.0
01/10:30am 22.0 20.8 9.5 45 6.8 NE 6 15 3 8 1010.5 1009.9 0.0
01/10:00am 21.0 19.4 10.2 50 5.9 SSE 9 15 5 8 1010.4 1009.8 0.0
01/09:30am 18.9 16.5 9.9 56 4.8 S 13 20 7 11 1010.5 1009.9 0.0
01/09:00am 18.3 15.9 10.2 59 4.4 S 13 17 7 9 1010.2 1009.6 0.0
01/08:30am 16.4 14.4 10.0 66 3.4 SSW 11 15 6 8 1010.2 1009.6 0.0
01/08:00am 15.7 13.8 10.5 71 2.8 S 11 17 6 9 1009.9 1009.3 0.0
01/07:30am 14.1 12.8 10.1 77 2.1 SSE 7 9 4 5 1009.5 1008.9 0.0
01/07:00am 12.2 10.8 9.6 84 1.3 SSE 7 9 4 5 1009.4 1008.8 0.0
01/06:30am 11.8 9.9 9.2 84 1.3 S 9 9 5 5 1009.2 1008.5 0.0
01/06:00am 12.4 10.6 9.4 82 1.5 SSE 9 11 5 6 1009.0 1008.3 0.0
01/05:30am 12.9 11.1 9.5 80 1.7 S 9 11 5 6 1008.8 1008.1 0.0
01/05:00am 13.1 11.0 9.7 80 1.8 S 11 13 6 7 1008.7 1008.0 0.0
01/04:30am 12.9 11.1 9.5 80 1.7 S 9 11 5 6 1008.6 1007.9 0.0
01/04:00am 13.0 11.3 9.8 81 1.7 S 9 11 5 6 1008.5 1007.8 0.0
01/03:30am 12.8 11.5 9.8 82 1.5 SSW 7 9 4 5 1008.7 1008.0 0.0
01/03:00am 13.8 12.1 10.0 78 2.0 S 9 13 5 7 1008.8 1008.1 0.0
01/02:30am 12.9 10.7 9.4 79 1.8 SSW 11 13 6 7 1008.7 1008.0 0.0
01/02:00am 13.7 11.2 9.6 76 2.1 SSW 13 13 7 7 1008.8 1008.1 0.0
01/01:30am 14.8 11.9 9.8 72 2.6 SW 15 19 8 10 1009.0 1008.3 0.0
01/01:00am 15.1 12.2 9.7 70 2.8 SSW 15 19 8 10 1008.9 1008.2 0.0
01/12:30am 15.9 13.0 9.8 67 3.2 SSW 15 20 8 11 1009.1 1008.4 0.0
01/12:00am 16.5 13.0 10.1 66 3.4 SSW 19 22 10 12 1009.1 1008.4 0.0
 
Date/Time
EDT
Temp
°C
App
Temp
°C
Dew
Point
Rel
Hum
%
Delta-T
°C
Wind Press
QNH
hPa
Press
MSL
hPa
Rain
since 9 am
mm
Dir
 
Spd
km/h
Gust
km/h
Spd
kts
Gust
kts
31/11:30pm 16.9 13.7 10.1 64 3.6 SSW 17 22 9 12 1009.3 1008.6 0.0
31/11:00pm 17.0 14.2 10.1 64 3.7 SW 15 20 8 11 1009.5 1008.9 0.0
31/10:30pm 17.7 14.6 10.3 62 4.0 SW 17 22 9 12 1009.4 1008.8 0.0
31/10:00pm 18.4 14.9 10.3 59 4.4 SW 19 26 10 14 1009.2 1008.5 0.0
31/09:30pm 19.1 15.5 10.4 57 4.7 SW 20 28 11 15 1008.8 1008.1 0.0
31/09:00pm 19.8 16.1 10.2 54 5.2 SSW 20 24 11 13 1008.4 1007.7 0.0
31/08:30pm 21.1 17.1 10.3 50 5.9 SW 22 30 12 16 1008.2 1007.5 0.0
31/08:00pm 22.6 18.1 10.1 45 6.9 SW 24 35 13 19 1007.8 1007.1 0.0
31/07:30pm 24.1 19.4 9.3 39 8.1 SW 24 35 13 19 1007.3 1006.6 0.0
31/07:00pm 25.1 19.8 8.6 35 9.0 SW 26 35 14 19 1006.9 1006.2 0.0
31/06:30pm 26.3 21.1 7.4 30 10.1 SW 24 37 13 20 1006.6 1005.9 0.0
31/06:00pm 26.5 22.0 7.0 29 10.4 SSW 20 33 11 18 1006.4 1005.7 0.0
31/05:30pm 26.7 22.7 6.7 28 10.6 S 17 30 9 16 1006.6 1005.9 0.0
31/05:00pm 27.1 23.4 6.5 27 10.9 SW 15 26 8 14 1006.7 1006.0 0.0
31/04:30pm 26.8 22.1 6.2 27 10.8 SW 20 32 11 17 1007.0 1006.3 0.0
31/04:00pm 26.9 21.9 6.3 27 10.9 SSW 22 50 12 27 1007.2 1006.5 0.0
31/03:30pm 27.0 23.7 8.0 30 10.3 SW 15 28 8 15 1007.4 1006.7 0.0
31/03:00pm 26.2 22.1 7.7 31 10.0 SW 19 30 10 16 1007.7 1007.0 0.0
31/02:30pm 26.0 22.1 7.1 30 10.0 SSW 17 28 9 15 1007.8 1007.1 0.0
31/02:00pm 25.3 22.9 7.0 31 9.7 W 9 17 5 9 1008.2 1007.5 0.0
31/01:30pm 24.1 20.5 5.0 29 9.6 W 13 22 7 12 1008.6 1007.9 0.0
31/01:00pm 24.4 21.5 6.6 32 9.3 W 11 22 6 12 1008.8 1008.1 0.0
31/12:30pm 23.1 20.0 5.5 32 8.9 SSW 11 20 6 11 1009.0 1008.3 0.0
31/12:00pm 22.1 19.4 5.5 34 8.4 N 9 13 5 7 1009.3 1008.6 0.0
31/11:30am 22.2 19.8 6.8 37 7.9 SSW 9 17 5 9 1009.5 1008.9 0.0
31/11:00am 20.4 18.2 6.0 39 7.2 SSW 7 15 4 8 1009.7 1009.1 0.0
31/10:30am 19.4 16.9 6.5 43 6.5 SSE 9 19 5 10 1009.8 1009.2 0.0
31/10:00am 18.7 16.1 6.2 44 6.2 SE 9 15 5 8 1010.2 1009.6 0.0
31/09:30am 17.6 14.7 6.5 48 5.5 S 11 17 6 9 1010.5 1009.9 0.0
31/09:00am 16.8 13.7 7.2 53 4.8 S 13 17 7 9 1010.5 1009.9 0.0
31/08:30am 15.7 13.2 8.2 61 3.8 S 11 17 6 9 1010.3 1009.7 0.0
31/08:00am 13.8 11.3 8.0 68 2.9 S 11 13 6 7 1010.4 1009.8 0.0
31/07:30am 12.2 10.7 8.3 77 1.9 SE 6 7 3 4 1010.0 1009.4 0.0
31/07:00am 10.1 8.4 7.5 84 1.3 SSE 6 6 3 3 1009.6 1009.0 0.0
31/06:30am 8.5 7.7 6.5 87 0.9 CALM 0 0 0 0 1009.6 1009.0 0.0
31/06:00am 8.9 6.9 6.2 83 1.3 SE 6 7 3 4 1009.5 1008.9 0.0
31/05:30am 9.6 7.2 6.9 83 1.3 S 9 9 5 5 1009.2 1008.5 0.0
31/05:00am 9.4 7.6 7.3 87 1.0 S 6 7 3 4 1009.0 1008.3 0.0
31/04:30am 8.6 5.9 5.5 81 1.4 SSW 9 13 5 7 1009.0 1008.3 0.0
31/04:00am 9.8 7.8 7.2 84 1.2 SSW 7 9 4 5 1009.1 1008.4 0.0
31/03:30am 11.1 9.2 6.8 75 2.1 SSE 6 7 3 4 1009.4 1008.8 0.0
31/03:00am 12.0 9.8 7.7 75 2.1 S 9 11 5 6 1009.5 1008.9 0.0
31/02:30am 12.3 10.0 7.4 72 2.4 S 9 11 5 6 1009.7 1009.1 0.0
31/02:00am 12.3 10.0 7.6 73 2.3 SSW 9 11 5 6 1009.8 1009.2 0.0
31/01:30am 12.6 9.6 7.5 71 2.5 SSW 13 17 7 9 1010.0 1009.4 0.0
31/01:00am 11.8 9.1 7.3 74 2.2 SSW 11 13 6 7 1010.2 1009.6 0.0
31/12:30am 13.2 10.6 7.9 70 2.6 SSW 11 13 6 7 1010.2 1009.6 0.0
31/12:00am 13.1 10.0 7.1 67 2.9 SSW 13 15 7 8 1010.2 1009.6 0.0
 
Date/Time
EDT
Temp
°C
App
Temp
°C
Dew
Point
Rel
Hum
%
Delta-T
°C
Wind Press
QNH
hPa
Press
MSL
hPa
Rain
since 9 am
mm
Dir
 
Spd
km/h
Gust
km/h
Spd
kts
Gust
kts
30/11:30pm 13.6 10.6 7.8 68 2.9 SSW 13 15 7 8 1010.3 1009.7 0.0
30/11:00pm 12.7 9.5 7.0 68 2.8 SSW 13 13 7 7 1010.4 1009.8 0.0
30/10:30pm 15.4 13.1 7.4 59 4.0 S 9 11 5 6 1010.4 1009.8 0.0
30/10:00pm 14.8 12.1 7.4 61 3.7 SSW 11 13 6 7 1010.6 1010.0 0.0
30/09:30pm 16.6 13.7 6.7 52 4.9 S 11 15 6 8 1010.4 1009.8 0.0
30/09:00pm 17.6 13.9 6.5 48 5.5 S 15 19 8 10 1010.2 1009.6 0.0
30/08:30pm 18.9 14.3 6.4 44 6.3 S 20 30 11 16 1009.9 1009.3 0.0
30/08:00pm 20.3 15.9 6.6 41 7.0 SSW 19 26 10 14 1009.7 1009.1 0.0
30/07:30pm 21.1 17.0 6.2 38 7.5 S 17 32 9 17 1009.4 1008.8 0.0
30/07:00pm 22.5 18.4 6.3 35 8.3 SSE 17 28 9 15 1009.1 1008.4 0.0
30/06:30pm 22.1 18.0 6.3 36 8.1 SSE 17 26 9 14 1009.1 1008.4 0.0
30/06:00pm 21.9 17.5 6.6 37 7.9 SSE 19 24 10 13 1009.1 1008.4 0.0
30/05:30pm 23.7 19.0 6.0 32 9.1 S 20 28 11 15 1009.1 1008.4 0.0
30/05:00pm 22.8 18.9 5.3 32 8.8 SSW 15 22 8 12 1009.3 1008.6 0.0
30/04:30pm 23.4 19.3 4.4 29 9.4 S 15 28 8 15 1009.6 1009.0 0.0
30/04:00pm 23.6 19.2 5.0 30 9.4 S 17 24 9 13 1009.8 1009.2 0.0
30/03:30pm 22.5 17.4 3.1 28 9.4 SSW 19 44 10 24 1010.2 1009.6 0.0
30/03:00pm 22.8 18.7 4.3 30 9.2 ENE 15 28 8 15 1010.6 1010.0 0.0
30/02:30pm 21.7 17.2 4.3 32 8.5 SE 17 28 9 15 1011.1 1010.5 0.0
30/02:00pm 22.6 18.3 5.1 32 8.8 SSE 17 24 9 13 1011.5 1010.9 0.0
30/01:30pm 22.3 17.0 2.9 28 9.3 SE 20 33 11 18 1011.7 1011.0 0.0
30/01:00pm 21.3 17.0 3.5 31 8.6 S 15 26 8 14 1012.2 1011.5 0.0
30/12:30pm 21.6 16.7 4.2 32 8.5 S 19 26 10 14 1012.5 1011.8 0.0
30/12:00pm 20.7 16.6 4.3 34 8.0 SE 15 22 8 12 1012.9 1012.2 0.0
30/11:30am 20.1 14.9 3.8 34 7.8 SSE 20 30 11 16 1013.1 1012.4 0.0
30/11:00am 19.4 15.3 4.3 37 7.3 SE 15 22 8 12 1013.4 1012.7 0.0
30/10:30am 18.8 13.3 4.2 38 7.0 SSE 22 32 12 17 1013.8 1013.1 0.0
30/10:00am 18.1 13.2 4.3 40 6.6 SSE 19 28 10 15 1013.9 1013.2 0.0
30/09:30am 18.1 13.7 4.7 41 6.5 S 17 26 9 14 1014.0 1013.3 0.0
30/09:00am 17.2 12.3 4.9 44 5.9 SSW 20 30 11 16 1014.0 1013.3 0.0
30/08:30am 16.0 12.2 5.9 51 4.9 S 15 20 8 11 1013.9 1013.2 0.0
30/08:00am 13.1 9.0 6.0 62 3.4 SSW 17 24 9 13 1013.7 1013.0 0.0
30/07:30am 11.5 6.6 5.2 65 2.9 SSW 20 28 11 15 1013.5 1012.8 0.0
30/07:00am 10.7 6.0 5.3 69 2.5 SSW 19 22 10 12 1013.3 1012.6 0.0
30/06:30am 10.1 5.8 5.3 72 2.2 SSW 17 17 9 9 1013.1 1012.4 0.0
30/06:00am 10.2 5.4 5.4 72 2.2 SSW 20 24 11 13 1012.9 1012.2 0.0
30/05:30am 9.6 6.3 4.4 70 2.3 SW 11 17 6 9 1012.9 1012.2 0.0
30/05:00am 11.0 7.7 4.7 65 2.9 S 11 13 6 7 1013.0 1012.3 0.0
30/04:30am 10.2 6.4 5.8 74 2.0 SSW 15 19 8 10 1013.0 1012.3 0.0
30/04:00am 10.2 7.3 4.6 68 2.5 SW 9 11 5 6 1013.1 1012.4 0.0
30/03:30am 9.8 6.5 4.8 71 2.3 SW 11 13 6 7 1013.3 1012.6 0.0
30/03:00am 11.0 7.8 5.1 67 2.7 SSW 11 13 6 7 1013.6 1012.9 0.0
30/02:30am 12.3 7.9 5.0 61 3.4 SSW 17 20 9 11 1013.7 1013.0 0.0
30/02:00am 13.2 9.6 5.1 58 3.8 S 13 19 7 10 1013.9 1013.2 0.0
30/01:30am 11.9 8.4 5.5 65 3.0 SSW 13 20 7 11 1014.2 1013.5 0.0
30/01:00am 13.9 9.7 5.5 57 4.0 S 17 20 9 11 1014.4 1013.7 0.0
30/12:30am 13.2 10.1 5.6 60 3.6 S 11 15 6 8 1014.7 1014.0 0.0
30/12:00am 14.3 10.5 5.7 56 4.1 S 15 20 8 11 1014.7 1014.0 0.0
 
Date/Time
EDT
Temp
°C
App
Temp
°C
Dew
Point
Rel
Hum
%
Delta-T
°C
Wind Press
QNH
hPa
Press
MSL
hPa
Rain
since 9 am
mm
Dir
 
Spd
km/h
Gust
km/h
Spd
kts
Gust
kts
29/11:30pm 14.5 11.1 5.8 56 4.2 S 13 17 7 9 1014.8 1014.1 0.0
29/11:00pm 15.2 11.4 6.0 54 4.5 S 15 20 8 11 1014.9 1014.2 0.0
29/10:30pm 15.6 11.4 5.8 52 4.7 S 17 28 9 15 1014.9 1014.2 0.0
29/10:00pm 16.8 11.3 5.7 48 5.4 SSE 24 33 13 18 1014.8 1014.1 0.0
29/09:30pm 17.1 11.6 5.7 47 5.6 SSE 24 33 13 18 1014.7 1014.0 0.0

Other Formats:

Comma delimited format used in spreadsheet applications
http://www.bom.gov.au/fwo/IDV60801/IDV60801.94889.axf

JavaScript Object Notation format (JSON) in row-major order
http://www.bom.gov.au/fwo/IDV60801/IDV60801.94889.json